createdAt,value
2022-11-16T00:01:19.461Z,93504.63
2022-11-16T00:03:45.891Z,93512.16
2022-11-16T00:06:12.308Z,93514.19
2022-11-16T00:08:38.712Z,93513.16
2022-11-16T00:11:05.131Z,93512.97
2022-11-16T00:13:31.555Z,93511.94
2022-11-16T00:15:57.973Z,93516.03
2022-11-16T00:18:24.427Z,93505.28
2022-11-16T00:20:50.845Z,93504.25
2022-11-16T00:23:17.290Z,93513.78
2022-11-16T00:25:43.715Z,93512.78
2022-11-16T00:28:10.138Z,93479.31
2022-11-16T00:30:36.559Z,93480.28
2022-11-16T00:33:02.988Z,93508.16
2022-11-16T00:35:29.400Z,93512.44
2022-11-16T00:37:55.791Z,93516.09
2022-11-16T00:40:22.210Z,93518.94
2022-11-16T00:42:48.633Z,93525.06
2022-11-16T00:45:15.033Z,93530.84
2022-11-16T00:47:41.473Z,93533.88
2022-11-16T00:50:07.914Z,93528.03
2022-11-16T00:52:34.329Z,93531.91
2022-11-16T00:55:00.761Z,93531.09
2022-11-16T00:57:27.163Z,93550.41
2022-11-16T00:59:53.582Z,93556.50
2022-11-16T01:02:20.016Z,93560.16
2022-11-16T01:04:46.417Z,93565.66
2022-11-16T01:07:12.913Z,93568.69
2022-11-16T01:09:39.347Z,93565.84
2022-11-16T01:12:05.756Z,93576.16
2022-11-16T01:14:32.191Z,93564.59
2022-11-16T01:16:58.605Z,93561.97
2022-11-16T01:19:25.031Z,93572.94
2022-11-16T01:21:51.431Z,93578.03
2022-11-16T01:24:17.869Z,93572.13
2022-11-16T01:26:44.283Z,93571.94
2022-11-16T01:29:10.679Z,93569.91
2022-11-16T01:31:37.106Z,93572.97
2022-11-16T01:34:03.514Z,93578.44
2022-11-16T01:36:29.944Z,93569.31
2022-11-16T01:38:56.358Z,93570.13
2022-11-16T01:41:22.755Z,93568.13
2022-11-16T01:43:49.179Z,93566.06
2022-11-16T01:46:15.579Z,93578.47
2022-11-16T01:48:42.044Z,93570.53
2022-11-16T01:51:08.542Z,93577.66
2022-11-16T01:53:34.965Z,93583.16
2022-11-16T01:56:01.409Z,93569.94
2022-11-16T01:58:27.827Z,93562.63
2022-11-16T02:00:54.259Z,93570.34
2022-11-16T02:03:20.706Z,93563.66
2022-11-16T02:05:47.143Z,93560.03
2022-11-16T02:08:13.585Z,93557.97
2022-11-16T02:10:39.992Z,93547.81
2022-11-16T02:13:06.409Z,93546.16
2022-11-16T02:15:32.821Z,93553.63
2022-11-16T02:17:59.454Z,93555.09
2022-11-16T02:20:25.921Z,93540.69
2022-11-16T02:22:52.346Z,93554.09
2022-11-16T02:25:18.772Z,93554.50
2022-11-16T02:27:45.197Z,93550.66
2022-11-16T02:30:11.622Z,93549.41
2022-11-16T02:32:38.019Z,93554.09
2022-11-16T02:35:04.440Z,93550.66
2022-11-16T02:37:30.842Z,93548.22
2022-11-16T02:39:57.239Z,93548.03
2022-11-16T02:42:23.650Z,93557.97
2022-11-16T02:44:50.051Z,93558.97
2022-11-16T02:47:16.468Z,93554.91
2022-11-16T02:49:42.873Z,93554.72
2022-11-16T02:52:09.289Z,93556.34
2022-11-16T02:54:35.734Z,93547.81
2022-11-16T02:57:02.154Z,93553.72
2022-11-16T02:59:28.580Z,93543.75
2022-11-16T03:01:55.006Z,93537.88
2022-11-16T03:04:21.406Z,93532.19
2022-11-16T03:06:47.915Z,93527.53
2022-11-16T03:09:14.397Z,93535.25
2022-11-16T03:11:40.824Z,93529.56
2022-11-16T03:14:07.773Z,93534.63
2022-11-16T03:16:34.189Z,93533.00
2022-11-16T03:19:00.605Z,93524.06
2022-11-16T03:21:27.017Z,93529.97
2022-11-16T03:23:53.522Z,93516.34
2022-11-16T03:26:19.922Z,93519.41
2022-11-16T03:28:46.370Z,93514.69
2022-11-16T03:31:12.808Z,93512.28
2022-11-16T03:33:39.222Z,93498.66
2022-11-16T03:36:05.646Z,93514.91
2022-11-16T03:38:32.336Z,93510.22
2022-11-16T03:40:59.006Z,93508.38
2022-11-16T03:43:25.478Z,93501.47
2022-11-16T03:45:51.902Z,93509.19
2022-11-16T03:48:18.299Z,93510.19
2022-11-16T03:50:44.724Z,93509.38
2022-11-16T03:53:11.132Z,93518.94
2022-11-16T03:55:37.531Z,93518.75
2022-11-16T03:58:03.998Z,93503.28
2022-11-16T04:00:30.461Z,93505.72
2022-11-16T04:02:56.931Z,93497.41
2022-11-16T04:05:23.433Z,93493.94
2022-11-16T04:07:49.850Z,93487.63
2022-11-16T04:10:16.265Z,93496.59
2022-11-16T04:12:42.698Z,93492.50
2022-11-16T04:15:09.142Z,93492.91
2022-11-16T04:17:35.565Z,93491.25
2022-11-16T04:20:01.978Z,93490.84
2022-11-16T04:22:28.396Z,93489.22
2022-11-16T04:24:54.839Z,93500.59
2022-11-16T04:27:21.321Z,93502.59
2022-11-16T04:29:47.746Z,93508.09
2022-11-16T04:32:14.175Z,93507.88
2022-11-16T04:34:40.571Z,93499.31
2022-11-16T04:37:07.009Z,93507.03
2022-11-16T04:39:33.418Z,93510.25
2022-11-16T04:41:59.838Z,93507.63
2022-11-16T04:44:29.991Z,93512.50
2022-11-16T04:46:56.555Z,93510.81
2022-11-16T04:49:22.967Z,93506.97
2022-11-16T04:51:49.386Z,93512.63
2022-11-16T04:54:15.798Z,93512.59
2022-11-16T04:56:42.204Z,93511.16
2022-11-16T04:59:08.811Z,93506.66
2022-11-16T05:01:35.278Z,93507.47
2022-11-16T05:04:02.505Z,93503.19
2022-11-16T05:06:28.936Z,93493.03
2022-11-16T05:08:55.332Z,93503.94
2022-11-16T05:11:21.726Z,93493.75
2022-11-16T05:13:48.148Z,93498.22
2022-11-16T05:16:14.555Z,93501.03
2022-11-16T05:18:40.973Z,93498.19
2022-11-16T05:21:07.373Z,93498.56
2022-11-16T05:23:33.822Z,93501.16
2022-11-16T05:26:00.235Z,93506.63
2022-11-16T05:28:26.640Z,93506.50
2022-11-16T05:30:53.116Z,93516.22
2022-11-16T05:33:19.517Z,93507.84
2022-11-16T05:35:45.901Z,93506.31
2022-11-16T05:38:12.318Z,93501.50
2022-11-16T05:40:38.720Z,93498.75
2022-11-16T05:43:05.094Z,93496.09
2022-11-16T05:45:31.497Z,93497.72
2022-11-16T05:47:57.882Z,93506.84
2022-11-16T05:50:24.288Z,93492.69
2022-11-16T05:52:50.727Z,93497.91
2022-11-16T05:55:17.141Z,93497.47
2022-11-16T05:57:43.530Z,93503.97
2022-11-16T06:00:09.943Z,93510.03
2022-11-16T06:02:36.413Z,93511.63
2022-11-16T06:05:02.884Z,93518.91
2022-11-16T06:07:29.367Z,93518.28
2022-11-16T06:09:55.919Z,93524.13
2022-11-16T06:12:22.417Z,93512.34
2022-11-16T06:14:48.893Z,93510.47
2022-11-16T06:17:17.364Z,93510.78
2022-11-16T06:19:43.746Z,93516.34
2022-11-16T06:22:10.161Z,93523.19
2022-11-16T06:24:37.098Z,93517.63
2022-11-16T06:27:03.503Z,93509.72
2022-11-16T06:29:29.913Z,93518.44
2022-11-16T06:31:56.319Z,93516.63
2022-11-16T06:34:22.712Z,93523.78
2022-11-16T06:36:49.131Z,93529.19
2022-11-16T06:39:15.635Z,93528.38
2022-11-16T06:41:42.024Z,93534.66
2022-11-16T06:44:08.419Z,93528.69
2022-11-16T06:46:34.837Z,93527.34
2022-11-16T06:49:01.245Z,93526.06
2022-11-16T06:51:27.656Z,93529.50
2022-11-16T06:53:54.082Z,93524.50
2022-11-16T06:56:20.482Z,93521.72
2022-11-16T06:58:46.885Z,93522.34
2022-11-16T07:01:13.320Z,93526.75
2022-11-16T07:03:39.920Z,93522.28
2022-11-16T07:06:07.536Z,93509.22
2022-11-16T07:08:34.023Z,93513.81
2022-11-16T07:11:04.152Z,93515.00
2022-11-16T07:13:30.863Z,93520.47
2022-11-16T07:15:57.259Z,93524.34
2022-11-16T07:18:23.660Z,93529.50
2022-11-16T07:20:50.088Z,93532.56
2022-11-16T07:23:16.488Z,93526.53
2022-11-16T07:25:43.156Z,93529.22
2022-11-16T07:28:09.541Z,93532.91
2022-11-16T07:30:35.935Z,93534.56
2022-11-16T07:33:02.340Z,93529.97
2022-11-16T07:35:28.738Z,93532.53
2022-11-16T07:37:55.130Z,93533.59
2022-11-16T07:40:21.535Z,93536.25
2022-11-16T07:42:47.957Z,93538.94
2022-11-16T07:45:14.327Z,93535.53
2022-11-16T07:47:40.713Z,93531.91
2022-11-16T07:50:07.123Z,93523.59
2022-11-16T07:52:33.513Z,93532.75
2022-11-16T07:54:59.887Z,93540.03
2022-11-16T07:57:26.276Z,93536.19
2022-11-16T07:59:52.796Z,93539.47
2022-11-16T08:02:19.200Z,93536.00
2022-11-16T08:04:45.617Z,93538.91
2022-11-16T08:07:12.044Z,93547.25
2022-11-16T08:09:38.482Z,93548.69
2022-11-16T08:12:05.068Z,93549.94
2022-11-16T08:14:31.466Z,93551.22
2022-11-16T08:16:57.955Z,93544.72
2022-11-16T08:19:24.341Z,93546.97
2022-11-16T08:21:50.716Z,93556.72
2022-11-16T08:24:17.235Z,93558.72
2022-11-16T08:26:43.654Z,93559.97
2022-11-16T08:29:10.074Z,93551.81
2022-11-16T08:31:36.467Z,93554.88
2022-11-16T08:34:02.895Z,93561.31
2022-11-16T08:36:29.276Z,93557.91
2022-11-16T08:38:55.673Z,93562.44
2022-11-16T08:41:22.205Z,93553.06
2022-11-16T08:43:48.611Z,93553.69
2022-11-16T08:46:15.004Z,93553.53
2022-11-16T08:48:42.002Z,93551.09
2022-11-16T08:51:23.774Z,93546.41
2022-11-16T08:53:50.175Z,93543.59
2022-11-16T08:56:16.591Z,93550.09
2022-11-16T08:58:43.042Z,93548.69
2022-11-16T09:01:09.430Z,93546.47
2022-11-16T09:03:35.891Z,93545.44
2022-11-16T09:06:02.330Z,93550.34
2022-11-16T09:08:28.739Z,93544.66
2022-11-16T09:10:55.153Z,93539.34
2022-11-16T09:13:21.538Z,93540.75
2022-11-16T09:15:47.917Z,93537.72
2022-11-16T09:18:14.333Z,93540.13
2022-11-16T09:20:40.737Z,93537.50
2022-11-16T09:23:07.129Z,93554.19
2022-11-16T09:25:33.517Z,93543.78
2022-11-16T09:27:59.905Z,93543.34
2022-11-16T09:30:26.309Z,93545.78
2022-11-16T09:32:52.695Z,93547.63
2022-11-16T09:35:19.186Z,93546.59
2022-11-16T09:37:45.560Z,93550.03
2022-11-16T09:40:11.940Z,93546.81
2022-11-16T09:42:38.377Z,93550.47
2022-11-16T09:45:04.924Z,93559.00
2022-11-16T09:47:31.428Z,93560.00
2022-11-16T09:50:02.922Z,93564.09
2022-11-16T09:52:30.221Z,93570.41
2022-11-16T09:54:56.616Z,93570.59
2022-11-16T09:57:23.016Z,93567.72
2022-11-16T09:59:49.421Z,93561.16
2022-11-16T10:02:15.893Z,93557.03
2022-11-16T10:04:42.295Z,93560.91
2022-11-16T10:07:08.737Z,93557.63
2022-11-16T10:09:35.164Z,93556.97
2022-11-16T10:12:01.556Z,93551.22
2022-11-16T10:14:27.965Z,93561.84
2022-11-16T10:16:54.354Z,93555.28
2022-11-16T10:19:20.854Z,93557.28
2022-11-16T10:21:47.240Z,93550.78
2022-11-16T10:24:13.614Z,93552.88
2022-11-16T10:26:40.020Z,93549.56
2022-11-16T10:29:06.410Z,93550.00
2022-11-16T10:31:32.787Z,93556.97
2022-11-16T10:33:59.178Z,93555.94
2022-11-16T10:36:25.567Z,93540.22
2022-11-16T10:38:51.960Z,93544.66
2022-11-16T10:41:18.366Z,93529.72
2022-11-16T10:43:44.752Z,93536.88
2022-11-16T10:46:11.141Z,93533.59
2022-11-16T10:48:37.558Z,93520.28
2022-11-16T10:51:03.957Z,93511.91
2022-11-16T10:53:30.359Z,93512.94
2022-11-16T10:55:56.760Z,93516.00
2022-11-16T10:58:23.268Z,93513.31
2022-11-16T11:00:49.744Z,93514.03
2022-11-16T11:03:16.175Z,93512.66
2022-11-16T11:05:42.586Z,93516.31
2022-11-16T11:08:09.008Z,93507.72
2022-11-16T11:10:35.415Z,93501.41
2022-11-16T11:13:01.841Z,93507.88
2022-11-16T11:15:28.243Z,93493.44
2022-11-16T11:17:54.668Z,93494.22
2022-11-16T11:20:21.058Z,93487.44
2022-11-16T11:22:47.471Z,93482.63
2022-11-16T11:25:13.874Z,93471.97
2022-11-16T11:27:40.268Z,93472.50
2022-11-16T11:30:06.647Z,93470.00
2022-11-16T11:32:33.022Z,93462.19
2022-11-16T11:34:59.427Z,93460.50
2022-11-16T11:37:25.915Z,93456.44
2022-11-16T11:39:52.324Z,93455.19
2022-11-16T11:42:18.739Z,93448.88
2022-11-16T11:44:45.143Z,93444.53
2022-11-16T11:47:55.591Z,93446.72
2022-11-16T11:49:57.981Z,93442.59
2022-11-16T11:52:24.382Z,93443.50
2022-11-16T11:54:50.758Z,93446.66
2022-11-16T11:57:17.179Z,93443.78
2022-11-16T11:59:43.581Z,93437.34
2022-11-16T12:02:09.987Z,93430.34
2022-11-16T12:04:36.371Z,93433.72
2022-11-16T12:07:02.835Z,93417.38
2022-11-16T12:09:29.270Z,93420.59
2022-11-16T12:11:55.646Z,93423.38
2022-11-16T12:14:22.042Z,93413.06
2022-11-16T12:16:48.465Z,93407.88
2022-11-16T12:19:14.875Z,93409.03
2022-11-16T12:21:41.288Z,93403.72
2022-11-16T12:24:07.668Z,93406.03
2022-11-16T12:26:34.055Z,93403.38
2022-11-16T12:29:00.482Z,93401.50
2022-11-16T12:31:26.865Z,93401.28
2022-11-16T12:33:53.255Z,93398.41
2022-11-16T12:36:19.681Z,93395.66
2022-11-16T12:38:46.068Z,93392.06
2022-11-16T12:41:12.559Z,93399.47
2022-11-16T12:43:38.964Z,93390.81
2022-11-16T12:46:05.351Z,93373.50
2022-11-16T12:48:31.742Z,93373.38
2022-11-16T12:50:58.165Z,93374.16
2022-11-16T12:53:24.550Z,93376.69
2022-11-16T12:55:50.942Z,93368.16
2022-11-16T12:58:17.334Z,93361.09
2022-11-16T13:00:43.806Z,93352.75
2022-11-16T13:03:10.214Z,93349.28
2022-11-16T13:05:36.608Z,93349.94
2022-11-16T13:08:03.001Z,93352.84
2022-11-16T13:10:29.410Z,93355.94
2022-11-16T13:13:09.300Z,93355.13
2022-11-16T13:15:42.214Z,93349.47
2022-11-16T13:18:08.643Z,93348.66
2022-11-16T13:20:35.033Z,93352.72
2022-11-16T13:23:01.446Z,93339.44
2022-11-16T13:25:27.820Z,93331.69
2022-11-16T13:27:54.203Z,93335.59
2022-11-16T13:30:20.620Z,93347.72
2022-11-16T13:32:46.997Z,93342.63
2022-11-16T13:35:13.411Z,93337.19
2022-11-16T13:37:39.827Z,93340.31
2022-11-16T13:40:06.262Z,93337.50
2022-11-16T13:42:32.669Z,93337.72
2022-11-16T13:44:59.080Z,93338.97
2022-11-16T13:47:25.571Z,93333.53
2022-11-16T13:49:51.968Z,93332.78
2022-11-16T13:52:23.873Z,93333.72
2022-11-16T13:54:51.684Z,93328.84
2022-11-16T13:57:18.456Z,93327.88
2022-11-16T13:59:44.932Z,93326.72
2022-11-16T14:02:11.338Z,93315.50
2022-11-16T14:04:37.759Z,93315.22
2022-11-16T14:07:04.250Z,93322.44
2022-11-16T14:09:33.198Z,93306.06
2022-11-16T14:11:59.648Z,93309.78
2022-11-16T14:14:26.067Z,93313.31
2022-11-16T14:16:52.476Z,93312.25
2022-11-16T14:19:18.883Z,93306.38
2022-11-16T14:21:45.291Z,93306.53
2022-11-16T14:24:11.701Z,93298.63
2022-11-16T14:26:38.128Z,93296.09
2022-11-16T14:29:04.530Z,93290.19
2022-11-16T14:31:30.904Z,93288.59
2022-11-16T14:33:57.313Z,93286.91
2022-11-16T14:36:23.712Z,93290.31
2022-11-16T14:38:50.112Z,93280.09
2022-11-16T14:41:16.493Z,93288.34
2022-11-16T14:43:42.914Z,93282.69
2022-11-16T14:46:09.322Z,93274.13
2022-11-16T14:48:35.764Z,93281.38
2022-11-16T14:51:02.240Z,93277.00
2022-11-16T14:53:28.663Z,93282.59
2022-11-16T14:55:55.051Z,93282.81
2022-11-16T14:58:21.697Z,93285.53
2022-11-16T15:00:48.156Z,93282.94
2022-11-16T15:03:14.622Z,93285.00
2022-11-16T15:05:41.053Z,93282.00
2022-11-16T15:08:07.440Z,93290.16
2022-11-16T15:10:33.881Z,93293.91
2022-11-16T15:13:00.259Z,93290.69
2022-11-16T15:15:26.644Z,93289.28
2022-11-16T15:17:53.074Z,93289.13
2022-11-16T15:20:19.469Z,93290.81
2022-11-16T15:22:45.877Z,93292.06
2022-11-16T15:25:12.273Z,93290.75
2022-11-16T15:27:38.682Z,93281.00
2022-11-16T15:30:05.106Z,93277.19
2022-11-16T15:32:31.489Z,93270.53
2022-11-16T15:35:02.447Z,93269.56
2022-11-16T15:37:31.447Z,93266.72
2022-11-16T15:39:57.867Z,93264.19
2022-11-16T15:42:24.254Z,93258.56
2022-11-16T15:44:50.633Z,93264.16
2022-11-16T15:47:17.086Z,93269.88
2022-11-16T15:49:43.483Z,93270.56
2022-11-16T15:52:09.900Z,93273.88
2022-11-16T15:54:36.309Z,93267.41
2022-11-16T15:57:02.707Z,93247.88
2022-11-16T15:59:29.085Z,93253.59
2022-11-16T16:01:55.529Z,93251.19
2022-11-16T16:04:21.968Z,93252.00
2022-11-16T16:06:48.525Z,93240.19
2022-11-16T16:09:15.082Z,93231.91
2022-11-16T16:11:41.487Z,93227.91
2022-11-16T16:14:07.899Z,93237.50
2022-11-16T16:16:34.307Z,93237.50
2022-11-16T16:19:04.955Z,93241.22
2022-11-16T16:21:34.676Z,93242.88
2022-11-16T16:24:01.138Z,93231.94
2022-11-16T16:26:27.531Z,93234.44
2022-11-16T16:28:53.959Z,93239.53
2022-11-16T16:31:20.375Z,93237.75
2022-11-16T16:33:46.802Z,93237.34
2022-11-16T16:36:13.206Z,93237.78
2022-11-16T16:38:39.624Z,93241.63
2022-11-16T16:41:06.063Z,93246.94
2022-11-16T16:43:32.802Z,93249.19
2022-11-16T16:45:59.435Z,93242.47
2022-11-16T16:48:25.843Z,93234.91
2022-11-16T16:50:52.246Z,93235.56
2022-11-16T16:53:18.681Z,93232.53
2022-11-16T16:55:45.114Z,93243.13
2022-11-16T16:58:11.512Z,93234.16
2022-11-16T17:00:38.038Z,93231.31
2022-11-16T17:03:04.510Z,93223.97
2022-11-16T17:05:30.890Z,93231.50
2022-11-16T17:07:57.314Z,93225.38
2022-11-16T17:10:23.714Z,93214.00
2022-11-16T17:12:50.262Z,93217.44
2022-11-16T17:15:19.508Z,93216.41
2022-11-16T17:17:46.066Z,93218.25
2022-11-16T17:20:12.434Z,93216.41
2022-11-16T17:22:38.910Z,93213.75
2022-11-16T17:25:05.306Z,93219.69
2022-11-16T17:27:31.687Z,93210.94
2022-11-16T17:29:58.072Z,93205.88
2022-11-16T17:32:24.485Z,93198.75
2022-11-16T17:34:50.914Z,93197.53
2022-11-16T17:37:17.324Z,93189.66
2022-11-16T17:39:43.720Z,93184.59
2022-11-16T17:42:10.129Z,93186.00
2022-11-16T17:44:36.515Z,93184.00
2022-11-16T17:47:02.923Z,93181.56
2022-11-16T17:49:29.319Z,93191.34
2022-11-16T17:51:55.715Z,93185.25
2022-11-16T17:54:22.130Z,93177.94
2022-11-16T17:56:48.512Z,93176.38
2022-11-16T17:59:14.888Z,93174.78
2022-11-16T18:01:41.305Z,93169.31
2022-11-16T18:04:07.728Z,93160.41
2022-11-16T18:06:34.132Z,93152.50
2022-11-16T18:09:00.533Z,93148.47
2022-11-16T18:11:26.998Z,93139.72
2022-11-16T18:13:53.414Z,93143.19
2022-11-16T18:16:19.827Z,93139.75
2022-11-16T18:18:46.260Z,93155.81
2022-11-16T18:21:18.791Z,93171.88
2022-11-16T18:23:46.721Z,93167.19
2022-11-16T18:26:13.184Z,93168.00
2022-11-16T18:28:39.659Z,93161.94
2022-11-16T18:31:06.085Z,93152.38
2022-11-16T18:33:32.810Z,93145.91
2022-11-16T18:35:59.596Z,93144.28
2022-11-16T18:38:25.995Z,93139.19
2022-11-16T18:40:52.392Z,93124.81
2022-11-16T18:43:18.818Z,93114.88
2022-11-16T18:45:45.203Z,93105.53
2022-11-16T18:48:11.622Z,93115.06
2022-11-16T18:50:38.018Z,93095.16
2022-11-16T18:53:04.434Z,93100.44
2022-11-16T18:55:30.867Z,93092.34
2022-11-16T18:57:57.291Z,93084.59
2022-11-16T19:00:23.712Z,93076.09
2022-11-16T19:02:50.238Z,93083.41
2022-11-16T19:05:16.668Z,93092.13
2022-11-16T19:07:43.089Z,93100.63
2022-11-16T19:10:09.527Z,93104.50
2022-11-16T19:12:35.934Z,93085.63
2022-11-16T19:15:02.401Z,93080.13
2022-11-16T19:17:28.807Z,93074.22
2022-11-16T19:19:55.238Z,93058.59
2022-11-16T19:22:21.647Z,93054.09
2022-11-16T19:24:48.056Z,93050.63
2022-11-16T19:27:14.541Z,93054.88
2022-11-16T19:29:40.950Z,93041.84
2022-11-16T19:32:07.403Z,93041.16
2022-11-16T19:34:33.809Z,93041.75
2022-11-16T19:37:00.249Z,93057.19
2022-11-16T19:39:26.637Z,93049.44
2022-11-16T19:41:53.066Z,93047.16
2022-11-16T19:44:19.471Z,93035.16
2022-11-16T19:46:45.899Z,93025.09
2022-11-16T19:49:19.448Z,93009.09
2022-11-16T19:51:46.319Z,93007.00
2022-11-16T19:54:12.723Z,93010.47
2022-11-16T19:56:39.347Z,93035.25
2022-11-16T19:59:05.755Z,93054.81
2022-11-16T20:01:32.297Z,93041.00
2022-11-16T20:03:59.415Z,93033.06
2022-11-16T20:06:27.002Z,93005.03
2022-11-16T20:08:53.404Z,93002.94
2022-11-16T20:11:19.879Z,93008.25
2022-11-16T20:13:46.782Z,93009.44
2022-11-16T20:16:13.388Z,93023.63
2022-11-16T20:18:41.048Z,93031.56
2022-11-16T20:21:07.491Z,93048.66
2022-11-16T20:23:34.221Z,93038.47
2022-11-16T20:26:00.832Z,93040.66
2022-11-16T20:28:27.229Z,93037.41
2022-11-16T20:30:53.676Z,93029.47
2022-11-16T20:33:20.075Z,93024.78
2022-11-16T20:35:46.681Z,93033.31
2022-11-16T20:38:14.796Z,93045.88
2022-11-16T20:40:41.392Z,93049.13
2022-11-16T20:43:07.963Z,93065.78
2022-11-16T20:45:34.386Z,93057.03
2022-11-16T20:48:00.812Z,93071.06
2022-11-16T20:50:27.230Z,93068.34
2022-11-16T20:52:54.328Z,93075.25
2022-11-16T20:55:20.754Z,93070.59
2022-11-16T20:57:47.496Z,93067.72
2022-11-16T21:00:13.955Z,93053.88
2022-11-16T21:02:40.429Z,93058.94
2022-11-16T21:05:06.847Z,93061.78
2022-11-16T21:07:33.297Z,93060.16
2022-11-16T21:09:59.814Z,93067.66
2022-11-16T21:12:26.187Z,93053.66
2022-11-16T21:14:52.610Z,93059.91
2022-11-16T21:17:19.002Z,93071.72
2022-11-16T21:20:05.350Z,93078.84
2022-11-16T21:23:46.716Z,93068.25
2022-11-16T21:25:20.290Z,93069.88
2022-11-16T21:27:46.881Z,93068.47
2022-11-16T21:30:13.465Z,93065.63
2022-11-16T21:32:40.176Z,93058.13
2022-11-16T21:35:07.657Z,93062.16
2022-11-16T21:37:34.244Z,93058.69
2022-11-16T21:40:02.832Z,93052.59
2022-11-16T21:42:29.447Z,93052.41
2022-11-16T21:44:55.916Z,93063.63
2022-11-16T21:47:22.330Z,93052.84
2022-11-16T21:50:16.920Z,93061.78
2022-11-16T21:52:35.100Z,93067.28
2022-11-16T21:55:01.521Z,93067.94
2022-11-16T21:57:28.043Z,93067.94
2022-11-16T21:59:54.671Z,93074.84
2022-11-16T22:02:22.285Z,93104.78
2022-11-16T22:04:50.879Z,93087.91
2022-11-16T22:07:17.534Z,93040.94
2022-11-16T22:09:45.073Z,93023.84
2022-11-16T22:12:11.502Z,93049.31
2022-11-16T22:14:37.943Z,93067.22
2022-11-16T22:17:04.355Z,93076.78
2022-11-16T22:19:30.758Z,93064.22
2022-11-16T22:21:57.184Z,93081.91
2022-11-16T22:24:23.685Z,93058.56
2022-11-16T22:26:50.134Z,93029.13
2022-11-16T22:29:16.540Z,93007.00
2022-11-16T22:31:42.962Z,93023.94
2022-11-16T22:34:09.379Z,93020.91
2022-11-16T22:36:35.760Z,93020.72
2022-11-16T22:39:02.160Z,93041.22
2022-11-16T22:41:28.544Z,93040.22
2022-11-16T22:43:54.995Z,93038.22
2022-11-16T22:46:21.895Z,93043.28
2022-11-16T22:48:48.322Z,93037.19
2022-11-16T22:51:14.712Z,93037.97
2022-11-16T22:53:41.167Z,93044.44
2022-11-16T22:56:08.278Z,93050.53
2022-11-16T22:58:34.725Z,93049.53
2022-11-16T23:01:01.446Z,93045.41
2022-11-16T23:03:29.082Z,93041.13
2022-11-16T23:05:55.527Z,93046.19
2022-11-16T23:08:21.927Z,93048.19
2022-11-16T23:10:49.331Z,93054.84
2022-11-16T23:13:15.764Z,93055.84
2022-11-16T23:15:42.191Z,93056.66
2022-11-16T23:18:08.580Z,93051.63
2022-11-16T23:20:34.978Z,93057.78
2022-11-16T23:23:01.392Z,93068.31
2022-11-16T23:25:27.810Z,93059.81
2022-11-16T23:27:54.213Z,93057.16
2022-11-16T23:30:20.589Z,93063.78
2022-11-16T23:32:47.074Z,93047.59
2022-11-16T23:35:13.476Z,93042.31
2022-11-16T23:37:39.877Z,93035.44
2022-11-16T23:40:06.268Z,93030.16
2022-11-16T23:42:33.520Z,93032.59
2022-11-16T23:44:59.910Z,93027.31
2022-11-16T23:47:26.731Z,93016.63
2022-11-16T23:49:53.125Z,93031.69
2022-11-16T23:52:19.516Z,93028.75
2022-11-16T23:54:45.947Z,93014.31
2022-11-16T23:57:13.094Z,92993.97
2022-11-16T23:59:39.519Z,92994.97
